Time;durP1;ratioP1;P1;durP2;ratioP2;P2;SDS_P1;SDS_P2;PMS_P1;PMS_P2;Temp;Humidity;BMP_temperature;BMP_pressure;BME280_temperature;BME280_humidity;BME280_pressure;Samples;Min_cycle;Max_cycle;Signal;HPM_P1;HPM_P2
2022/07/07 00:00:47;;;;;;;1.95;1.30;;;;;;;18.16;75.99;102117.31;5084954;28;20077;-75
2022/07/07 00:03:12;;;;;;;2.25;1.30;;;;;;;18.17;75.84;102116.38;5086248;28;20036;-75
2022/07/07 00:05:39;;;;;;;4.45;1.60;;;;;;;18.17;75.96;102118.16;5070837;28;20359;-75
2022/07/07 00:08:04;;;;;;;2.33;1.20;;;;;;;18.16;76.12;102106.69;5104677;28;20035;-75
2022/07/07 00:10:30;;;;;;;2.75;1.15;;;;;;;18.17;75.62;102099.59;5063391;28;20108;-75
2022/07/07 00:12:56;;;;;;;3.05;1.20;;;;;;;18.18;75.80;102098.66;5065218;28;20097;-75
2022/07/07 00:15:21;;;;;;;2.10;1.27;;;;;;;18.17;75.91;102095.16;5078074;28;20040;-75
2022/07/07 00:17:47;;;;;;;3.15;1.45;;;;;;;18.18;75.86;102111.91;5061058;28;20032;-75
2022/07/07 00:20:12;;;;;;;2.10;1.20;;;;;;;18.17;75.58;102111.06;5064505;28;20040;-76
2022/07/07 00:22:38;;;;;;;1.92;1.35;;;;;;;18.18;75.71;102114.56;5081878;28;20050;-75
2022/07/07 00:25:05;;;;;;;2.42;1.20;;;;;;;18.16;75.41;102098.75;5074698;28;20096;-75
2022/07/07 00:27:31;;;;;;;3.25;1.60;;;;;;;18.17;75.40;102091.63;5065401;28;20025;-75
2022/07/07 00:29:56;;;;;;;1.73;1.10;;;;;;;18.16;75.47;102088.13;5065706;28;20054;-75
2022/07/07 00:32:21;;;;;;;2.53;1.50;;;;;;;18.15;75.37;102090.88;5083121;28;20146;-75
2022/07/07 00:34:47;;;;;;;1.00;1.00;;;;;;;18.13;75.06;102087.44;5084600;28;20036;-75
2022/07/07 00:37:12;;;;;;;5.47;1.60;;;;;;;18.14;74.92;102086.53;5083051;28;20052;-75
2022/07/07 00:39:38;;;;;;;1.33;1.23;;;;;;;18.12;74.91;102080.41;5071649;28;20053;-75
2022/07/07 00:42:03;;;;;;;1.40;1.30;;;;;;;18.11;74.94;102074.25;5050167;28;20024;-75
2022/07/07 00:44:29;;;;;;;4.63;1.40;;;;;;;18.11;74.92;102073.41;5083835;28;20041;-75
2022/07/07 00:46:55;;;;;;;3.00;1.20;;;;;;;18.09;74.70;102068.19;5045699;28;20025;-75
2022/07/07 00:49:21;;;;;;;4.25;1.20;;;;;;;18.08;74.52;102070.91;5077080;28;20033;-75
2022/07/07 00:51:47;;;;;;;2.78;1.25;;;;;;;18.07;74.49;102070.06;5046294;28;20037;-75
2022/07/07 00:54:12;;;;;;;1.83;1.27;;;;;;;18.08;74.48;102078.88;5063428;28;20112;-75
2022/07/07 00:56:39;;;;;;;2.05;1.25;;;;;;;18.07;74.29;102066.56;5072732;28;20256;-75
2022/07/07 00:59:08;;;;;;;3.50;1.23;;;;;;;18.06;74.18;102070.16;5083577;28;20101;-75
2022/07/07 01:05:11;;;;;;;1.45;1.20;;;;;;;18.03;74.61;102081.78;5079191;28;20033;-74
2022/07/07 01:07:37;;;;;;;7.20;1.50;;;;;;;17.99;74.63;102080.19;5080609;28;20318;-75
2022/07/07 01:10:05;;;;;;;3.25;1.42;;;;;;;17.99;74.84;102083.72;5065396;28;20045;-75
2022/07/07 01:12:40;;;;;;;2.22;1.20;;;;;;;17.98;75.04;102094.41;5099476;28;20079;-75
2022/07/07 01:15:09;;;;;;;4.20;1.25;;;;;;;17.96;75.03;102098.94;5077148;28;20293;-74
2022/07/07 01:17:35;;;;;;;1.48;1.17;;;;;;;17.95;75.28;102097.22;5065516;28;20028;-75
2022/07/07 01:20:02;;;;;;;2.45;1.10;;;;;;;17.94;75.37;102084.91;5083495;28;20035;-75
2022/07/07 01:22:31;;;;;;;1.25;1.00;;;;;;;17.92;75.21;102082.34;5083932;28;20020;-75
2022/07/07 01:24:57;;;;;;;1.10;1.00;;;;;;;17.91;75.36;102083.25;5083423;28;20084;-75
2022/07/07 01:27:22;;;;;;;3.85;1.40;;;;;;;17.90;75.39;102070.97;5066011;28;20028;-75
2022/07/07 01:29:50;;;;;;;2.55;1.10;;;;;;;17.90;75.14;102062.13;5065667;28;20032;-75
2022/07/07 01:32:16;;;;;;;4.93;0.85;;;;;;;17.89;75.26;102074.53;5082984;28;20032;-75
2022/07/07 01:34:44;;;;;;;4.10;0.90;;;;;;;17.87;75.35;102073.75;5083181;28;20240;-75
2022/07/07 01:37:10;;;;;;;0.88;0.80;;;;;;;17.84;75.87;102069.47;5082479;28;20065;-75
2022/07/07 01:39:37;;;;;;;2.70;0.95;;;;;;;17.83;75.13;102070.38;5076933;28;20033;-76
2022/07/07 01:42:03;;;;;;;3.70;0.93;;;;;;;17.82;75.30;102065.16;5064876;28;20039;-75
2022/07/07 01:44:33;;;;;;;1.77;0.95;;;;;;;17.82;75.68;102060.72;5065368;28;20052;-75
2022/07/07 01:46:59;;;;;;;1.52;1.00;;;;;;;17.81;75.68;102066.97;5082825;28;20033;-75
2022/07/07 01:49:25;;;;;;;2.85;1.10;;;;;;;17.80;76.03;102065.22;5085170;28;20057;-74
2022/07/07 01:51:51;;;;;;;2.53;1.17;;;;;;;17.80;76.14;102062.59;5103118;28;20020;-74
2022/07/07 01:54:16;;;;;;;1.35;1.05;;;;;;;17.78;75.99;102075.06;5084948;28;20050;-75
2022/07/07 01:56:42;;;;;;;2.08;0.93;;;;;;;17.76;75.86;102074.28;5080174;28;20040;-75
2022/07/07 01:59:08;;;;;;;0.88;0.85;;;;;;;17.77;76.53;102064.53;5064624;28;20024;-75
2022/07/07 02:01:34;;;;;;;1.98;1.05;;;;;;;17.76;76.46;102068.13;5064699;28;20046;-75
2022/07/07 02:04:02;;;;;;;1.30;0.90;;;;;;;17.72;76.07;102055.97;5082215;28;20092;-77
2022/07/07 02:06:28;;;;;;;1.80;0.95;;;;;;;17.71;76.27;102057.75;5059955;28;20059;-77
2022/07/07 02:08:53;;;;;;;1.00;0.80;;;;;;;17.70;76.72;102055.19;5061530;28;20032;-78
2022/07/07 02:11:19;;;;;;;3.38;1.17;;;;;;;17.69;76.76;102050.84;5065746;28;20049;-77
2022/07/07 02:13:51;;;;;;;3.05;0.90;;;;;;;17.66;76.65;102046.53;5055884;28;20043;-77
2022/07/07 02:16:18;;;;;;;2.33;0.90;;;;;;;17.65;76.52;102036.91;5056231;28;20370;-78
2022/07/07 02:18:45;;;;;;;1.13;0.85;;;;;;;17.65;76.45;102040.38;5057058;28;20024;-77
2022/07/07 02:21:13;;;;;;;3.83;1.10;;;;;;;17.65;76.20;102039.53;5061167;28;20097;-77
2022/07/07 02:23:41;;;;;;;1.25;1.00;;;;;;;17.64;76.38;102041.34;5075710;28;20029;-77
2022/07/07 02:26:06;;;;;;;5.38;1.20;;;;;;;17.65;76.65;102052.78;5077349;28;20438;-78
2022/07/07 02:28:32;;;;;;;1.58;0.90;;;;;;;17.64;77.09;102043.13;5076548;28;20039;-77
2022/07/07 02:30:59;;;;;;;3.45;1.27;;;;;;;17.62;78.46;102058.22;5076161;28;20052;-77
2022/07/07 02:33:25;;;;;;;3.83;1.10;;;;;;;17.62;77.98;102056.44;5075656;28;20040;-77
2022/07/07 02:35:51;;;;;;;3.42;1.58;;;;;;;17.60;78.33;102039.75;5065400;28;20357;-77
2022/07/07 02:38:17;;;;;;;10.55;1.25;;;;;;;17.59;78.17;102046.00;5058705;28;20043;-77
2022/07/07 02:40:43;;;;;;;2.20;1.25;;;;;;;17.58;77.81;102040.78;5075811;28;20254;-78
2022/07/07 02:43:12;;;;;;;0.93;0.88;;;;;;;17.57;78.22;102042.59;5063636;28;20040;-77
2022/07/07 02:45:40;;;;;;;2.13;1.02;;;;;;;17.57;78.40;102042.59;5056784;28;20037;-77
2022/07/07 02:48:06;;;;;;;1.63;1.08;;;;;;;17.56;77.91;102045.31;5056715;28;20040;-77
2022/07/07 02:50:32;;;;;;;1.75;1.17;;;;;;;17.56;78.08;102042.66;5057079;28;20039;-78
2022/07/07 02:52:57;;;;;;;9.65;1.25;;;;;;;17.54;78.38;102039.25;5056433;28;20291;-77
2022/07/07 02:55:24;;;;;;;5.50;1.23;;;;;;;17.53;78.83;102041.00;5056909;28;20044;-77
2022/07/07 02:57:49;;;;;;;8.23;1.50;;;;;;;17.51;79.38;102039.38;5055386;28;20063;-78
2022/07/07 03:00:15;;;;;;;4.65;0.82;;;;;;;17.51;79.54;102039.38;5065335;28;20024;-77
2022/07/07 03:02:40;;;;;;;6.90;1.55;;;;;;;17.49;79.80;102044.75;5073325;28;20327;-77
2022/07/07 03:05:06;;;;;;;6.78;1.15;;;;;;;17.47;79.83;102051.94;5055541;28;20048;-77
2022/07/07 03:07:32;;;;;;;5.07;1.25;;;;;;;17.44;79.59;102060.91;5030869;28;20380;-77
2022/07/07 03:09:57;;;;;;;6.88;1.48;;;;;;;17.42;79.20;102056.59;5056594;28;20121;-77
2022/07/07 03:12:23;;;;;;;2.72;0.90;;;;;;;17.39;79.15;102072.63;5042581;28;20036;-78
2022/07/07 03:14:48;;;;;;;3.67;1.20;;;;;;;17.37;79.42;102059.50;5058995;28;20259;-77
2022/07/07 03:17:14;;;;;;;2.53;0.80;;;;;;;17.34;79.59;102067.56;5064389;28;20036;-77
2022/07/07 03:19:39;;;;;;;3.42;0.98;;;;;;;17.32;79.43;102063.28;5078984;28;20036;-77
2022/07/07 03:22:04;;;;;;;2.85;0.80;;;;;;;17.31;79.88;102070.38;5096816;28;20349;-77
2022/07/07 03:24:31;;;;;;;5.03;1.23;;;;;;;17.29;79.68;102064.28;5078811;28;20040;-78
2022/07/07 03:26:58;;;;;;;3.03;0.90;;;;;;;17.29;79.85;102074.88;5097226;28;20288;-77
2022/07/07 03:29:24;;;;;;;5.15;0.95;;;;;;;17.29;79.78;102071.38;5096488;28;20034;-78
2022/07/07 03:31:50;;;;;;;3.17;1.27;;;;;;;17.28;79.93;102067.88;5068389;28;20311;-77
2022/07/07 03:34:15;;;;;;;4.53;1.10;;;;;;;17.28;80.07;102067.88;5078205;28;20101;-77
2022/07/07 03:36:40;;;;;;;2.15;0.70;;;;;;;17.27;80.17;102063.50;5078705;28;20287;-77
2022/07/07 03:39:06;;;;;;;1.58;0.70;;;;;;;17.26;79.88;102069.72;5083872;28;20055;-77
2022/07/07 03:41:31;;;;;;;2.70;0.90;;;;;;;17.25;79.57;102074.19;5062454;28;20103;-77
2022/07/07 03:43:57;;;;;;;3.05;1.08;;;;;;;17.24;79.65;102071.59;5078618;28;20385;-77
2022/07/07 03:46:22;;;;;;;6.47;1.20;;;;;;;17.24;79.61;102076.91;5096767;28;20142;-77
2022/07/07 03:48:48;;;;;;;4.60;0.80;;;;;;;17.22;79.69;102081.41;5072771;28;20115;-76
2022/07/07 03:51:13;;;;;;;1.13;0.70;;;;;;;17.21;79.83;102088.50;5058218;28;20031;-77
2022/07/07 03:53:39;;;;;;;5.40;1.30;;;;;;;17.21;79.61;102082.38;5076020;28;20044;-77
2022/07/07 03:56:04;;;;;;;3.40;0.80;;;;;;;17.19;79.61;102078.91;5074979;28;20098;-77
2022/07/07 03:58:30;;;;;;;4.82;0.95;;;;;;;17.19;79.51;102076.25;5075109;28;20044;-77
2022/07/07 04:00:55;;;;;;;3.17;0.98;;;;;;;17.19;79.79;102077.13;5087090;28;20246;-77
2022/07/07 04:03:21;;;;;;;4.55;1.10;;;;;;;17.19;79.79;102084.19;5075035;28;20043;-77
2022/07/07 04:05:46;;;;;;;3.33;1.00;;;;;;;17.18;79.83;102085.16;5075136;28;20036;-77
2022/07/07 04:08:11;;;;;;;4.03;1.13;;;;;;;17.18;80.01;102085.16;5075022;28;20040;-77
2022/07/07 04:10:37;;;;;;;8.43;1.20;;;;;;;17.16;80.00;102084.38;5057149;28;20153;-77
2022/07/07 04:13:02;;;;;;;4.43;0.98;;;;;;;17.15;79.98;102088.78;5040770;28;20348;-77
2022/07/07 04:15:28;;;;;;;3.15;1.00;;;;;;;17.15;79.79;102090.59;5044621;28;20511;-78
2022/07/07 04:17:53;;;;;;;2.15;0.80;;;;;;;17.14;79.71;102088.88;5093648;28;20099;-77
2022/07/07 04:20:19;;;;;;;10.73;1.50;;;;;;;17.13;79.79;102095.09;5057958;28;20103;-77
2022/07/07 04:22:44;;;;;;;4.50;0.98;;;;;;;17.10;79.73;102084.66;5060285;28;20043;-77
2022/07/07 04:25:11;;;;;;;4.10;1.20;;;;;;;17.07;79.65;102097.09;5078852;28;20040;-77
2022/07/07 04:27:36;;;;;;;3.10;0.80;;;;;;;17.06;79.92;102106.00;5061171;28;20099;-77
2022/07/07 04:30:02;;;;;;;2.90;1.00;;;;;;;17.05;79.59;102101.63;5079376;28;20232;-77
2022/07/07 04:32:27;;;;;;;8.85;1.33;;;;;;;17.06;79.59;102099.81;5080537;28;20255;-77
2022/07/07 04:34:52;;;;;;;4.55;0.82;;;;;;;17.06;78.87;102110.41;5052874;28;20032;-77
2022/07/07 04:37:18;;;;;;;4.13;0.77;;;;;;;17.03;78.62;102121.16;5060806;28;20112;-77
2022/07/07 04:39:43;;;;;;;3.85;1.00;;;;;;;17.00;77.74;102122.16;5078820;28;20107;-77
2022/07/07 04:42:09;;;;;;;3.95;1.40;;;;;;;16.97;77.59;102124.06;5073517;28;20088;-77
2022/07/07 04:44:34;;;;;;;5.20;1.10;;;;;;;16.95;77.73;102128.59;5063882;28;20046;-77
2022/07/07 04:46:59;;;;;;;4.50;1.23;;;;;;;16.93;77.45;102130.44;5080789;28;20028;-77
2022/07/07 04:49:25;;;;;;;6.22;1.40;;;;;;;16.91;77.29;102132.31;5080197;28;20039;-77
2022/07/07 04:51:50;;;;;;;4.35;0.90;;;;;;;16.90;77.16;102134.13;5080289;28;20111;-77
2022/07/07 04:54:16;;;;;;;4.63;0.88;;;;;;;16.89;76.97;102142.97;5080935;28;20035;-77
2022/07/07 04:56:41;;;;;;;5.40;1.08;;;;;;;16.88;77.22;102152.69;5081117;28;20182;-77
2022/07/07 04:59:07;;;;;;;5.32;1.30;;;;;;;16.84;76.59;102151.09;5077493;28;20054;-77
2022/07/07 05:01:32;;;;;;;5.13;1.48;;;;;;;16.85;76.77;102157.28;5078823;28;20036;-77
2022/07/07 05:03:58;;;;;;;2.85;1.25;;;;;;;16.82;76.92;102152.94;5097808;28;20040;-77
2022/07/07 05:06:23;;;;;;;5.53;1.70;;;;;;;16.82;77.02;102165.31;5087799;28;20035;-77
2022/07/07 05:08:49;;;;;;;7.68;1.90;;;;;;;16.80;77.12;102164.53;5080743;28;20056;-77
2022/07/07 05:11:14;;;;;;;6.55;1.70;;;;;;;16.78;77.00;102164.59;5098139;28;20052;-77
2022/07/07 05:13:39;;;;;;;3.92;1.30;;;;;;;16.77;76.81;102165.53;5080248;28;20219;-77
2022/07/07 05:16:05;;;;;;;6.28;1.48;;;;;;;16.76;77.02;102171.75;5093589;28;20091;-77
2022/07/07 05:18:31;;;;;;;6.05;1.30;;;;;;;16.75;76.74;102166.50;5078130;28;20044;-77
2022/07/07 05:20:57;;;;;;;3.90;1.05;;;;;;;16.73;76.91;102171.03;5093076;28;20035;-77
2022/07/07 05:23:25;;;;;;;8.45;1.70;;;;;;;16.71;76.79;102176.38;5097518;28;20043;-77
2022/07/07 05:25:51;;;;;;;4.63;1.40;;;;;;;16.69;76.87;102184.38;5097287;28;20248;-77
2022/07/07 05:28:16;;;;;;;7.47;1.52;;;;;;;16.70;76.70;102180.81;5061520;28;20339;-77
2022/07/07 05:30:42;;;;;;;3.60;1.33;;;;;;;16.72;77.06;102187.81;5077457;28;20044;-77
2022/07/07 05:33:07;;;;;;;5.72;1.50;;;;;;;16.72;76.85;102185.16;5043204;28;20036;-77
2022/07/07 05:35:34;;;;;;;5.03;1.15;;;;;;;16.73;77.05;102189.53;5042329;28;20036;-77
2022/07/07 05:38:00;;;;;;;7.40;1.42;;;;;;;16.71;77.06;102192.25;5077844;28;20032;-77
2022/07/07 05:40:26;;;;;;;7.07;1.23;;;;;;;16.70;76.84;102203.78;5077356;28;20036;-77
2022/07/07 05:42:52;;;;;;;6.85;1.40;;;;;;;16.70;77.10;102204.63;5077049;28;20075;-77
2022/07/07 05:45:17;;;;;;;7.28;1.40;;;;;;;16.69;76.94;102207.34;5060017;28;20044;-76
2022/07/07 05:47:43;;;;;;;7.30;1.33;;;;;;;16.69;76.56;102207.34;5059279;28;20032;-77
2022/07/07 05:50:08;;;;;;;6.18;1.60;;;;;;;16.69;76.46;102217.91;5059632;28;20884;-77
2022/07/07 05:52:34;;;;;;;8.48;1.80;;;;;;;16.68;76.40;102211.78;5059135;28;20111;-77
2022/07/07 05:54:59;;;;;;;5.82;1.23;;;;;;;16.68;76.55;102222.34;5042359;28;20038;-76
2022/07/07 05:57:24;;;;;;;2.92;1.25;;;;;;;16.67;76.39;102217.13;5077166;28;20033;-77
2022/07/07 05:59:50;;;;;;;7.28;1.88;;;;;;;16.67;76.39;102223.28;5041529;28;20036;-76
2022/07/07 06:02:15;;;;;;;7.60;2.00;;;;;;;16.65;77.07;102222.47;5058913;28;20066;-77
2022/07/07 06:04:41;;;;;;;5.88;1.38;;;;;;;16.64;76.62;102236.63;5058593;28;20071;-77
2022/07/07 06:07:07;;;;;;;5.90;1.55;;;;;;;16.63;76.58;102234.06;5042703;28;20085;-77
2022/07/07 06:09:32;;;;;;;3.85;1.13;;;;;;;16.61;76.35;102230.63;5059349;28;20032;-76
2022/07/07 06:11:58;;;;;;;2.80;0.88;;;;;;;16.60;76.34;102237.69;5076694;28;20240;-77
2022/07/07 06:14:23;;;;;;;6.43;1.17;;;;;;;16.60;76.52;102240.34;5076546;28;20201;-77
2022/07/07 06:16:48;;;;;;;6.82;1.60;;;;;;;16.57;76.72;102264.28;5077219;28;20401;-77
2022/07/07 06:19:14;;;;;;;2.53;0.95;;;;;;;16.57;77.21;102266.94;5069383;28;20449;-77
2022/07/07 06:21:41;;;;;;;5.30;1.38;;;;;;;16.56;77.63;102273.13;5050337;28;20175;-77
2022/07/07 06:24:08;;;;;;;3.17;1.17;;;;;;;16.54;78.11;102269.69;5078813;28;20032;-77
2022/07/07 06:26:33;;;;;;;5.88;1.65;;;;;;;16.53;78.17;102257.41;5076306;28;20040;-77
2022/07/07 06:28:59;;;;;;;2.90;1.00;;;;;;;16.54;78.50;102256.47;5076197;28;20073;-77
2022/07/07 06:31:24;;;;;;;5.80;1.30;;;;;;;16.54;78.80;102268.84;5058244;28;20027;-77
2022/07/07 06:33:49;;;;;;;3.85;1.00;;;;;;;16.54;78.67;102277.63;5090059;28;20054;-77
2022/07/07 06:36:15;;;;;;;3.83;1.02;;;;;;;16.56;78.77;102274.94;5095375;28;20054;-77
2022/07/07 06:38:40;;;;;;;11.25;1.38;;;;;;;16.54;79.86;102269.69;5078381;28;20207;-77
2022/07/07 06:41:06;;;;;;;1.60;0.93;;;;;;;16.56;79.70;102269.66;5095437;28;20042;-77
2022/07/07 06:43:31;;;;;;;5.50;1.10;;;;;;;16.54;80.01;102272.34;5096398;28;20078;-77
2022/07/07 06:45:57;;;;;;;4.35;0.90;;;;;;;16.55;79.58;102274.06;5070109;28;20035;-77
2022/07/07 06:48:23;;;;;;;3.40;1.10;;;;;;;16.54;79.41;102275.00;5093001;28;20099;-77
2022/07/07 06:50:49;;;;;;;7.78;1.15;;;;;;;16.56;79.54;102281.06;5077957;28;20053;-77
2022/07/07 06:53:14;;;;;;;4.45;1.00;;;;;;;16.55;79.53;102287.28;5096203;28;20099;-77
2022/07/07 06:55:39;;;;;;;3.05;1.08;;;;;;;16.57;79.34;102295.16;5077862;28;20067;-77
2022/07/07 06:58:05;;;;;;;3.30;0.95;;;;;;;16.57;78.98;102298.66;5077317;28;20278;-77
2022/07/07 07:00:30;;;;;;;3.10;0.88;;;;;;;16.57;78.86;102296.03;5095498;28;20347;-77
2022/07/07 07:02:56;;;;;;;2.60;1.00;;;;;;;16.56;78.75;102288.16;5077637;28;20452;-77
2022/07/07 07:05:22;;;;;;;5.80;1.00;;;;;;;16.56;78.07;102299.59;5077544;28;20081;-77
2022/07/07 07:07:48;;;;;;;6.78;0.90;;;;;;;16.55;77.86;102297.84;5077577;28;20058;-77
2022/07/07 07:10:14;;;;;;;4.85;1.35;;;;;;;16.55;77.72;102303.13;5094856;28;20048;-77
2022/07/07 07:12:39;;;;;;;2.80;0.90;;;;;;;16.57;77.32;102297.78;5092254;28;20043;-77
2022/07/07 07:15:06;;;;;;;4.65;1.02;;;;;;;16.57;77.40;102306.59;5081550;28;20042;-78
2022/07/07 07:17:31;;;;;;;5.85;1.00;;;;;;;16.58;77.07;102299.53;5078497;28;20120;-77
2022/07/07 07:19:57;;;;;;;3.35;0.90;;;;;;;16.58;77.14;102296.88;5068394;28;20557;-78
2022/07/07 07:22:22;;;;;;;4.13;1.25;;;;;;;16.57;77.23;102306.59;5094432;28;20036;-77
2022/07/07 07:24:48;;;;;;;6.68;1.15;;;;;;;16.58;77.08;102304.81;5087543;28;20260;-77
2022/07/07 07:27:13;;;;;;;4.72;1.08;;;;;;;16.59;76.98;102309.16;5093775;28;20200;-77
2022/07/07 07:29:39;;;;;;;2.67;1.08;;;;;;;16.61;76.59;102308.19;5062670;28;20396;-77
2022/07/07 07:32:05;;;;;;;1.30;0.52;;;;;;;16.61;76.47;102309.97;5077814;28;20023;-77
2022/07/07 07:34:30;;;;;;;4.32;1.05;;;;;;;16.60;76.30;102318.81;5070237;28;20375;-77
2022/07/07 07:36:55;;;;;;;3.72;0.80;;;;;;;16.61;76.48;102321.41;5076686;28;20038;-77
2022/07/07 07:39:21;;;;;;;7.18;1.10;;;;;;;16.59;77.13;102325.91;5075700;28;20028;-77
2022/07/07 07:41:46;;;;;;;3.90;0.80;;;;;;;16.57;77.62;102341.00;5088800;28;20040;-77
2022/07/07 07:44:11;;;;;;;1.90;0.93;;;;;;;16.56;77.78;102341.91;5081225;28;20052;-77
2022/07/07 07:46:37;;;;;;;3.60;0.88;;;;;;;16.55;78.10;102353.38;5071785;28;20040;-77
2022/07/07 07:49:06;;;;;;;4.15;0.82;;;;;;;16.54;78.00;102349.03;5076151;28;20224;-77
2022/07/07 07:51:32;;;;;;;;;;;;;;;16.51;79.09;102352.66;5078804;28;20044;-77
2022/07/07 07:53:58;;;;;;;4.13;0.73;;;;;;;16.51;78.78;102351.81;5075505;28;20258;-77
2022/07/07 07:56:23;;;;;;;3.50;0.98;;;;;;;16.51;78.85;102352.66;5055969;28;20034;-77
2022/07/07 07:58:49;;;;;;;3.45;0.75;;;;;;;16.50;79.12;102350.94;5090620;28;20044;-77
2022/07/07 08:01:14;;;;;;;4.78;0.95;;;;;;;16.53;78.68;102359.69;5071970;28;20031;-77
2022/07/07 08:03:39;;;;;;;5.50;1.17;;;;;;;16.52;79.29;102345.59;5073501;28;20039;-77
2022/07/07 08:06:05;;;;;;;5.45;1.23;;;;;;;16.49;79.16;102353.66;5086850;28;20269;-77
2022/07/07 08:08:30;;;;;;;4.68;0.80;;;;;;;16.49;78.96;102348.38;5095876;28;20047;-77
2022/07/07 08:10:56;;;;;;;5.93;1.40;;;;;;;16.49;78.75;102354.50;5050246;28;20036;-78
2022/07/07 08:13:22;;;;;;;5.28;1.20;;;;;;;16.49;79.23;102358.94;5096379;28;20040;-77
2022/07/07 08:15:47;;;;;;;4.15;0.75;;;;;;;16.48;79.30;102360.75;5098097;28;20111;-77
2022/07/07 08:18:12;;;;;;;4.25;1.15;;;;;;;16.49;79.18;102361.59;5082862;28;20036;-78
2022/07/07 08:20:38;;;;;;;5.18;1.10;;;;;;;16.46;79.38;102365.22;5097938;28;20042;-77
2022/07/07 08:23:04;;;;;;;6.57;0.75;;;;;;;16.47;79.60;102361.66;5084473;28;20219;-77
2022/07/07 08:25:29;;;;;;;3.53;1.02;;;;;;;16.49;79.53;102366.88;5098479;28;20040;-77
2022/07/07 08:27:54;;;;;;;3.78;0.77;;;;;;;16.51;79.57;102375.59;5097362;28;20321;-78
2022/07/07 08:30:20;;;;;;;5.95;1.15;;;;;;;16.50;79.76;102381.84;5069609;28;20043;-77
2022/07/07 08:32:45;;;;;;;3.70;0.77;;;;;;;16.50;80.38;102387.13;5097974;28;20323;-78
2022/07/07 08:35:14;;;;;;;1.45;0.45;;;;;;;16.49;80.01;102388.03;5079450;28;20335;-77
2022/07/07 08:37:41;;;;;;;2.03;0.50;;;;;;;16.48;80.11;102384.53;5086695;28;20055;-77
2022/07/07 08:40:06;;;;;;;1.35;0.40;;;;;;;16.49;80.00;102391.53;5070992;28;20044;-78
2022/07/07 08:42:32;;;;;;;4.47;0.80;;;;;;;16.50;80.29;102387.13;5063321;28;20055;-78
2022/07/07 08:44:57;;;;;;;2.97;0.82;;;;;;;16.52;80.22;102387.91;5095128;28;20235;-77
2022/07/07 08:47:25;;;;;;;2.65;0.60;;;;;;;16.55;80.43;102385.13;5080266;28;20046;-77
2022/07/07 08:49:51;;;;;;;1.58;0.50;;;;;;;16.58;80.39;102392.94;5080985;28;20115;-78
2022/07/07 08:52:16;;;;;;;12.63;1.27;;;;;;;16.59;80.60;102385.84;5083848;28;20230;-78
2022/07/07 08:54:43;;;;;;;3.95;1.00;;;;;;;16.60;80.79;102385.78;5097882;28;20024;-77
2022/07/07 08:57:08;;;;;;;4.75;0.80;;;;;;;16.63;80.38;102393.63;5087592;28;20048;-77
2022/07/07 08:59:34;;;;;;;5.88;1.05;;;;;;;16.66;80.22;102400.56;5093358;28;20127;-77
2022/07/07 09:02:01;;;;;;;4.35;0.80;;;;;;;16.65;79.31;102417.38;5054072;28;20079;-78
2022/07/07 09:04:27;;;;;;;3.17;1.00;;;;;;;16.64;79.69;102421.75;5097776;28;20250;-77
2022/07/07 09:07:10;;;;;;;4.70;0.88;;;;;;;16.62;80.08;102422.78;5079741;28;20024;-78
2022/07/07 09:09:36;;;;;;;2.28;0.80;;;;;;;16.60;79.73;102430.75;5059514;28;20362;-77
2022/07/07 09:12:05;;;;;;;5.40;1.00;;;;;;;16.59;79.95;102421.13;5093436;28;20056;-77
2022/07/07 09:14:40;;;;;;;4.80;1.27;;;;;;;16.62;79.88;102418.34;5079482;28;20278;-78
2022/07/07 09:17:33;;;;;;;5.45;1.40;;;;;;;16.65;79.92;102431.44;5095658;28;20032;-77
2022/07/07 09:20:06;;;;;;;2.80;0.65;;;;;;;16.66;80.27;102430.53;5084215;28;20040;-77
2022/07/07 09:22:48;;;;;;;5.90;1.63;;;;;;;16.66;80.45;102430.53;5097064;28;20104;-77
2022/07/07 09:25:18;;;;;;;6.70;1.55;;;;;;;16.66;80.18;102434.94;5096530;28;20125;-77
2022/07/07 09:27:55;;;;;;;6.13;1.35;;;;;;;16.65;79.92;102447.31;5086025;28;20032;-77
2022/07/07 09:30:38;;;;;;;5.82;0.77;;;;;;;16.65;79.74;102444.66;5090680;28;20315;-77
2022/07/07 09:33:09;;;;;;;3.97;0.98;;;;;;;16.66;79.66;102449.03;5090646;28;20040;-77
2022/07/07 09:38:22;;;;;;;6.95;1.65;;;;;;;16.69;79.23;102455.97;5093219;28;20320;-77
2022/07/07 09:41:08;;;;;;;6.07;1.67;;;;;;;16.73;79.03;102460.22;5064266;28;20028;-77
2022/07/07 09:43:43;;;;;;;7.03;1.40;;;;;;;16.77;79.37;102453.91;5091475;28;20024;-78
2022/07/07 09:46:15;;;;;;;5.18;1.20;;;;;;;16.82;79.56;102461.63;5097141;28;20036;-78
2022/07/07 09:48:46;;;;;;;7.65;1.60;;;;;;;16.84;80.10;102468.59;5100083;28;20035;-77
2022/07/07 09:51:33;;;;;;;9.27;1.55;;;;;;;16.87;80.11;102480.84;5096696;28;20085;-77
2022/07/07 09:54:11;;;;;;;6.78;1.10;;;;;;;16.88;79.11;102486.09;5075936;28;20047;-78
2022/07/07 09:56:41;;;;;;;8.35;1.50;;;;;;;16.88;78.53;102490.50;5101365;28;20043;-77
2022/07/07 09:59:09;;;;;;;6.63;1.30;;;;;;;16.89;78.32;102502.81;5096413;28;20040;-77
2022/07/07 10:01:38;;;;;;;6.35;1.73;;;;;;;16.88;78.42;102503.72;5076584;28;20082;-77
2022/07/07 10:04:06;;;;;;;7.50;1.38;;;;;;;16.87;78.49;102507.31;5096208;28;20024;-77
2022/07/07 10:06:34;;;;;;;7.10;1.20;;;;;;;16.86;77.67;102513.53;5102346;28;20067;-78
2022/07/07 10:09:04;;;;;;;9.32;1.60;;;;;;;16.85;77.65;102509.16;5096404;28;20040;-78
2022/07/07 10:11:36;;;;;;;6.13;0.70;;;;;;;16.88;77.57;102525.78;5089740;28;20350;-77
2022/07/07 10:14:10;;;;;;;3.17;0.90;;;;;;;16.88;76.70;102527.53;5088122;28;20035;-78
2022/07/07 10:16:37;;;;;;;4.85;1.00;;;;;;;16.90;76.86;102517.78;5091860;28;20044;-77
2022/07/07 10:19:02;;;;;;;4.75;0.93;;;;;;;16.90;76.68;102501.91;5087159;28;20322;-77
2022/07/07 10:21:28;;;;;;;4.72;1.30;;;;;;;16.91;77.38;102523.94;5078648;28;20447;-78
2022/07/07 10:23:54;;;;;;;5.03;1.10;;;;;;;16.95;76.88;102526.38;5071780;28;20036;-78
2022/07/07 10:26:34;;;;;;;3.55;1.02;;;;;;;16.98;76.91;102531.56;5075334;28;20032;-77
2022/07/07 10:29:00;;;;;;;3.53;1.20;;;;;;;17.01;76.85;102526.16;5092162;28;20028;-77
2022/07/07 10:31:26;;;;;;;2.75;1.23;;;;;;;17.03;77.00;102529.59;5078468;28;20073;-77
2022/07/07 10:34:00;;;;;;;7.60;1.58;;;;;;;17.06;76.91;102536.53;5091334;28;20028;-77
2022/07/07 10:36:25;;;;;;;5.22;1.50;;;;;;;17.05;77.69;102548.06;5095746;28;20048;-77
2022/07/07 10:38:57;;;;;;;3.83;1.08;;;;;;;17.03;77.79;102557.84;5089035;28;20046;-77
2022/07/07 10:41:24;;;;;;;11.15;2.78;;;;;;;17.05;78.82;102553.34;5078046;28;20390;-77
2022/07/07 10:44:04;;;;;;;2.47;0.80;;;;;;;17.04;78.31;102567.50;5096120;28;20036;-77
2022/07/07 10:46:30;;;;;;;2.65;0.80;;;;;;;17.05;77.90;102571.88;5096356;28;20274;-77
2022/07/07 10:49:07;;;;;;;2.40;0.80;;;;;;;17.05;77.81;102566.59;5089088;28;20325;-77
2022/07/07 10:51:49;;;;;;;6.22;1.00;;;;;;;17.05;77.90;102575.38;5092695;28;20051;-77
2022/07/07 10:54:15;;;;;;;5.07;1.20;;;;;;;17.02;77.40;102586.06;5087741;28;20043;-77
2022/07/07 10:56:55;;;;;;;1.95;0.73;;;;;;;17.01;77.32;102587.03;5058433;28;20032;-77
2022/07/07 10:59:22;;;;;;;3.80;0.82;;;;;;;16.97;78.90;102608.34;5096036;28;20035;-78
2022/07/07 11:02:40;;;;;;;1.65;0.50;;;;;;;16.91;80.30;102609.47;5091327;28;20040;-77
2022/07/07 11:05:14;;;;;;;0.80;0.40;;;;;;;16.88;80.69;102617.50;5046379;28;20048;-78
2022/07/07 11:07:41;;;;;;;2.88;0.60;;;;;;;16.88;80.96;102614.88;5091112;28;20036;-77
2022/07/07 11:10:12;;;;;;;2.50;0.60;;;;;;;16.88;81.34;102628.09;5091879;28;20243;-77
2022/07/07 11:12:45;;;;;;;1.08;0.55;;;;;;;16.87;82.24;102621.94;5090268;28;20028;-77
2022/07/07 11:15:14;;;;;;;2.40;0.80;;;;;;;16.86;82.83;102624.66;5090257;28;20445;-77
2022/07/07 11:17:39;;;;;;;2.55;0.80;;;;;;;16.85;83.05;102622.94;5091720;28;20289;-77
2022/07/07 11:20:09;;;;;;;5.10;0.88;;;;;;;16.82;82.95;102636.25;5088482;28;20368;-78
2022/07/07 11:22:44;;;;;;;1.67;0.90;;;;;;;16.75;83.39;102654.13;5057968;28;20032;-78
2022/07/07 11:25:13;;;;;;;1.85;0.55;;;;;;;16.75;83.23;102658.56;5092240;28;20039;-77
2022/07/07 11:27:39;;;;;;;1.52;0.73;;;;;;;16.75;83.41;102653.28;5095800;28;20365;-78
2022/07/07 11:30:05;;;;;;;4.13;0.80;;;;;;;16.75;83.24;102655.94;5097925;28;20032;-77